Time,TemperatureF,DewpointF,PressureIn,WindDirection,WindDirectionDegrees,WindSpeedMPH,WindSpeedGustMPH,Humidity,HourlyPrecipIn,Conditions,Clouds,dailyrainin,SolarRadiationWatts/m^2,SoftwareType,DateUTC
2013-03-04 00:01:00,67.0,56.0,-100.00,East,79,18.0,30.0,69,0.00,,,0.00,1.000000,,2013-03-04 10:01:00,
2013-03-04 00:11:00,67.0,56.0,-100.00,East,79,18.0,30.0,69,0.00,,,0.00,1.000000,,2013-03-04 10:11:00,
2013-03-04 00:21:00,67.0,56.0,-100.00,East,79,18.0,30.0,69,0.00,,,0.00,1.000000,,2013-03-04 10:21:00,
2013-03-04 00:31:00,67.0,56.0,-100.00,East,79,18.0,30.0,69,0.00,,,0.00,1.000000,,2013-03-04 10:31:00,
2013-03-04 00:52:00,66.0,56.0,-100.00,ENE,67,20.0,29.0,69,0.00,,,0.00,1.000000,,2013-03-04 10:52:00,
2013-03-04 01:01:00,66.0,56.0,-100.00,ENE,67,20.0,29.0,69,0.00,,,0.00,1.000000,,2013-03-04 11:01:00,
2013-03-04 01:11:00,66.0,56.0,-100.00,ENE,67,20.0,29.0,69,0.00,,,0.00,1.000000,,2013-03-04 11:11:00,
2013-03-04 01:21:00,66.0,56.0,-100.00,ENE,67,20.0,29.0,69,0.00,,,0.00,1.000000,,2013-03-04 11:21:00,
2013-03-04 01:31:00,66.0,56.0,-100.00,ENE,67,20.0,29.0,69,0.00,,,0.00,1.000000,,2013-03-04 11:31:00,
2013-03-04 01:52:00,66.0,53.0,-100.00,East,90,18.0,35.0,64,0.00,,,0.00,1.000000,,2013-03-04 11:52:00,
2013-03-04 02:01:00,66.0,53.0,-100.00,East,90,18.0,35.0,64,0.00,,,0.00,1.000000,,2013-03-04 12:01:00,
2013-03-04 02:11:00,66.0,53.0,-100.00,East,90,18.0,35.0,64,0.00,,,0.00,1.000000,,2013-03-04 12:11:00,
2013-03-04 02:22:00,66.0,53.0,-100.00,East,90,18.0,35.0,64,0.00,,,0.00,1.000000,,2013-03-04 12:22:00,
2013-03-04 02:32:00,66.0,53.0,-100.00,East,90,18.0,35.0,64,0.00,,,0.00,1.000000,,2013-03-04 12:32:00,
2013-03-04 03:02:00,66.0,54.0,-100.00,East,84,16.0,26.0,65,0.00,,,0.00,1.000000,,2013-03-04 13:02:00,
2013-03-04 03:11:00,66.0,54.0,-100.00,East,84,16.0,26.0,65,0.00,,,0.00,1.000000,,2013-03-04 13:11:00,
2013-03-04 03:21:00,66.0,54.0,-100.00,East,84,16.0,26.0,65,0.00,,,0.00,1.000000,,2013-03-04 13:21:00,
2013-03-04 03:31:00,66.0,54.0,-100.00,East,84,16.0,26.0,65,0.00,,,0.00,1.000000,,2013-03-04 13:31:00,
2013-03-04 03:52:00,65.0,49.0,-100.00,East,89,18.0,30.0,56,0.00,,,0.00,1.000000,,2013-03-04 13:52:00,
2013-03-04 04:01:00,65.0,49.0,-100.00,East,89,18.0,30.0,56,0.00,,,0.00,1.000000,,2013-03-04 14:01:00,
2013-03-04 04:11:00,65.0,49.0,-100.00,East,89,18.0,30.0,56,0.00,,,0.00,1.000000,,2013-03-04 14:11:00,
2013-03-04 04:22:00,65.0,49.0,-100.00,East,89,18.0,30.0,56,0.00,,,0.00,1.000000,,2013-03-04 14:22:00,
2013-03-04 04:31:00,65.0,49.0,-100.00,East,89,18.0,30.0,56,0.00,,,0.00,1.000000,,2013-03-04 14:31:00,
2013-03-04 04:52:00,66.0,48.0,-100.00,East,90,15.0,27.0,53,0.00,,,0.00,1.000000,,2013-03-04 14:52:00,
2013-03-04 05:01:00,66.0,48.0,-100.00,East,90,15.0,27.0,53,0.00,,,0.00,1.000000,,2013-03-04 15:01:00,
2013-03-04 05:11:00,66.0,48.0,-100.00,East,90,15.0,27.0,53,0.00,,,0.00,1.000000,,2013-03-04 15:11:00,
2013-03-04 05:21:00,66.0,48.0,-100.00,East,90,15.0,27.0,53,0.00,,,0.00,1.000000,,2013-03-04 15:21:00,
2013-03-04 05:31:00,66.0,48.0,-100.00,East,90,15.0,27.0,53,0.00,,,0.00,1.000000,,2013-03-04 15:31:00,
2013-03-04 06:02:00,64.0,49.0,-100.00,ESE,118,13.0,23.0,59,0.00,,,0.00,1.000000,,2013-03-04 16:02:00,
2013-03-04 06:11:00,64.0,49.0,-100.00,ESE,118,13.0,23.0,59,0.00,,,0.00,1.000000,,2013-03-04 16:11:00,
2013-03-04 06:21:00,64.0,49.0,-100.00,ESE,118,13.0,23.0,59,0.00,,,0.00,1.000000,,2013-03-04 16:21:00,
2013-03-04 06:31:00,64.0,49.0,-100.00,ESE,118,13.0,23.0,59,0.00,,,0.00,1.000000,,2013-03-04 16:31:00,
2013-03-04 07:02:00,64.0,54.0,-100.00,ENE,78,15.0,29.0,70,0.00,,,0.00,1.000000,,2013-03-04 17:02:00,
2013-03-04 07:11:00,64.0,54.0,-100.00,ENE,78,15.0,29.0,70,0.00,,,0.00,1.000000,,2013-03-04 17:11:00,
2013-03-04 07:21:00,64.0,54.0,-100.00,ENE,78,15.0,29.0,70,0.00,,,0.00,1.000000,,2013-03-04 17:21:00,
2013-03-04 07:31:00,64.0,54.0,-100.00,ENE,78,15.0,29.0,70,0.00,,,0.00,1.000000,,2013-03-04 17:31:00,
2013-03-04 07:52:00,67.0,54.0,-100.00,East,90,18.0,30.0,62,0.00,,,0.00,66.000000,,2013-03-04 17:52:00,
2013-03-04 08:01:00,67.0,54.0,-100.00,East,90,18.0,30.0,62,0.00,,,0.00,66.000000,,2013-03-04 18:01:00,
2013-03-04 08:11:00,67.0,54.0,-100.00,East,90,18.0,30.0,62,0.00,,,0.00,66.000000,,2013-03-04 18:11:00,
2013-03-04 08:21:00,67.0,54.0,-100.00,East,90,18.0,30.0,62,0.00,,,0.00,66.000000,,2013-03-04 18:21:00,
2013-03-04 08:31:00,67.0,54.0,-100.00,East,90,18.0,30.0,62,0.00,,,0.00,66.000000,,2013-03-04 18:31:00,
2013-03-04 08:52:00,70.0,55.0,-100.00,ENE,71,23.0,35.0,59,0.00,,,0.00,302.000000,,2013-03-04 18:52:00,
2013-03-04 09:01:00,70.0,55.0,-100.00,ENE,71,23.0,35.0,59,0.00,,,0.00,302.000000,,2013-03-04 19:01:00,
2013-03-04 09:11:00,70.0,55.0,-100.00,ENE,71,23.0,35.0,59,0.00,,,0.00,302.000000,,2013-03-04 19:11:00,
2013-03-04 09:21:00,70.0,55.0,-100.00,ENE,71,23.0,35.0,59,0.00,,,0.00,302.000000,,2013-03-04 19:21:00,
2013-03-04 09:31:00,70.0,55.0,-100.00,ENE,71,23.0,35.0,59,0.00,,,0.00,302.000000,,2013-03-04 19:31:00,
2013-03-04 10:01:00,72.0,52.0,-100.00,ENE,72,26.0,35.0,49,0.00,,,0.00,541.000000,,2013-03-04 20:01:00,
2013-03-04 10:11:00,72.0,52.0,-100.00,ENE,72,26.0,35.0,49,0.00,,,0.00,541.000000,,2013-03-04 20:11:00,
2013-03-04 10:21:00,72.0,52.0,-100.00,ENE,72,26.0,35.0,49,0.00,,,0.00,541.000000,,2013-03-04 20:21:00,
2013-03-04 10:31:00,72.0,52.0,-100.00,ENE,72,26.0,35.0,49,0.00,,,0.00,541.000000,,2013-03-04 20:31:00,
2013-03-04 10:52:00,73.0,50.0,-100.00,ENE,63,21.0,36.0,44,0.00,,,0.00,616.000000,,2013-03-04 20:52:00,
2013-03-04 11:01:00,73.0,50.0,-100.00,ENE,63,21.0,36.0,44,0.00,,,0.00,616.000000,,2013-03-04 21:01:00,
2013-03-04 11:11:00,73.0,50.0,-100.00,ENE,63,21.0,36.0,44,0.00,,,0.00,616.000000,,2013-03-04 21:11:00,
2013-03-04 11:21:00,73.0,50.0,-100.00,ENE,63,21.0,36.0,44,0.00,,,0.00,616.000000,,2013-03-04 21:21:00,
2013-03-04 11:31:00,73.0,50.0,-100.00,ENE,63,21.0,36.0,44,0.00,,,0.00,616.000000,,2013-03-04 21:31:00,
2013-03-04 12:01:00,76.0,52.0,-100.00,ENE,58,20.0,33.0,43,0.00,,,0.00,840.000000,,2013-03-04 22:01:00,
2013-03-04 12:11:00,76.0,52.0,-100.00,ENE,58,20.0,33.0,43,0.00,,,0.00,840.000000,,2013-03-04 22:11:00,
2013-03-04 12:21:00,76.0,52.0,-100.00,ENE,58,20.0,33.0,43,0.00,,,0.00,840.000000,,2013-03-04 22:21:00,
2013-03-04 12:31:00,76.0,52.0,-100.00,ENE,58,20.0,33.0,43,0.00,,,0.00,840.000000,,2013-03-04 22:31:00,
2013-03-04 12:52:00,78.0,51.0,-100.00,NE,47,15.0,30.0,39,0.00,,,0.00,946.000000,,2013-03-04 22:52:00,
2013-03-04 13:01:00,78.0,51.0,-100.00,NE,47,15.0,30.0,39,0.00,,,0.00,946.000000,,2013-03-04 23:01:00,
2013-03-04 13:11:00,78.0,51.0,-100.00,NE,47,15.0,30.0,39,0.00,,,0.00,946.000000,,2013-03-04 23:11:00,
2013-03-04 13:21:00,78.0,51.0,-100.00,NE,47,15.0,30.0,39,0.00,,,0.00,946.000000,,2013-03-04 23:21:00,
2013-03-04 13:31:00,78.0,51.0,-100.00,NE,47,15.0,30.0,39,0.00,,,0.00,946.000000,,2013-03-04 23:31:00,
2013-03-04 13:52:00,78.0,50.0,-100.00,NE,54,17.0,24.0,37,0.00,,,0.00,943.000000,,2013-03-04 23:52:00,
2013-03-04 14:01:00,78.0,50.0,-100.00,NE,54,17.0,24.0,37,0.00,,,0.00,943.000000,,2013-03-05 00:01:00,
2013-03-04 14:11:00,78.0,50.0,-100.00,NE,54,17.0,24.0,37,0.00,,,0.00,943.000000,,2013-03-05 00:11:00,
2013-03-04 14:21:00,78.0,50.0,-100.00,NE,54,17.0,24.0,37,0.00,,,0.00,943.000000,,2013-03-05 00:21:00,
2013-03-04 14:32:00,78.0,50.0,-100.00,NE,54,17.0,24.0,37,0.00,,,0.00,943.000000,,2013-03-05 00:32:00,
2013-03-04 15:01:00,79.0,53.0,-100.00,NE,40,10.0,25.0,40,0.00,,,0.00,891.000000,,2013-03-05 01:01:00,
2013-03-04 15:12:00,79.0,53.0,-100.00,NE,40,10.0,25.0,40,0.00,,,0.00,891.000000,,2013-03-05 01:12:00,
2013-03-04 15:21:00,79.0,53.0,-100.00,NE,40,10.0,25.0,40,0.00,,,0.00,891.000000,,2013-03-05 01:21:00,
2013-03-04 15:32:00,79.0,53.0,-100.00,NE,40,10.0,25.0,40,0.00,,,0.00,891.000000,,2013-03-05 01:32:00,
2013-03-04 15:52:00,76.0,52.0,-100.00,ENE,65,15.0,22.0,44,0.00,,,0.00,316.000000,,2013-03-05 01:52:00,
2013-03-04 16:01:00,76.0,52.0,-100.00,ENE,65,15.0,22.0,44,0.00,,,0.00,316.000000,,2013-03-05 02:01:00,
2013-03-04 16:11:00,76.0,52.0,-100.00,ENE,65,15.0,22.0,44,0.00,,,0.00,316.000000,,2013-03-05 02:11:00,
2013-03-04 16:21:00,76.0,52.0,-100.00,ENE,65,15.0,22.0,44,0.00,,,0.00,316.000000,,2013-03-05 02:21:00,
2013-03-04 16:31:00,76.0,52.0,-100.00,ENE,65,15.0,22.0,44,0.00,,,0.00,316.000000,,2013-03-05 02:31:00,
2013-03-04 16:52:00,77.0,54.0,-100.00,ENE,62,17.0,25.0,45,0.00,,,0.00,478.000000,,2013-03-05 02:52:00,
2013-03-04 17:01:00,77.0,54.0,-100.00,ENE,62,17.0,25.0,45,0.00,,,0.00,478.000000,,2013-03-05 03:01:00,
2013-03-04 17:12:00,77.0,54.0,-100.00,ENE,62,17.0,25.0,45,0.00,,,0.00,478.000000,,2013-03-05 03:12:00,
2013-03-04 17:21:00,77.0,54.0,-100.00,ENE,62,17.0,25.0,45,0.00,,,0.00,478.000000,,2013-03-05 03:21:00,
2013-03-04 17:31:00,77.0,54.0,-100.00,ENE,62,17.0,25.0,45,0.00,,,0.00,478.000000,,2013-03-05 03:31:00,
2013-03-04 18:01:00,74.0,54.0,-100.00,ENE,62,18.0,26.0,50,0.00,,,0.00,284.000000,,2013-03-05 04:01:00,
2013-03-04 18:11:00,74.0,54.0,-100.00,ENE,62,18.0,26.0,50,0.00,,,0.00,284.000000,,2013-03-05 04:11:00,
2013-03-04 18:21:00,74.0,54.0,-100.00,ENE,62,18.0,26.0,50,0.00,,,0.00,284.000000,,2013-03-05 04:21:00,
2013-03-04 18:31:00,74.0,54.0,-100.00,ENE,62,18.0,26.0,50,0.00,,,0.00,284.000000,,2013-03-05 04:31:00,
2013-03-04 18:52:00,69.0,53.0,-100.00,ENE,70,21.0,30.0,57,0.00,,,0.00,64.000000,,2013-03-05 04:52:00,
2013-03-04 19:01:00,69.0,53.0,-100.00,ENE,70,21.0,30.0,57,0.00,,,0.00,64.000000,,2013-03-05 05:01:00,
2013-03-04 19:11:00,69.0,53.0,-100.00,ENE,70,21.0,30.0,57,0.00,,,0.00,64.000000,,2013-03-05 05:11:00,
2013-03-04 19:22:00,69.0,53.0,-100.00,ENE,70,21.0,30.0,57,0.00,,,0.00,64.000000,,2013-03-05 05:22:00,
2013-03-04 19:31:00,69.0,53.0,-100.00,ENE,70,21.0,30.0,57,0.00,,,0.00,64.000000,,2013-03-05 05:31:00,
2013-03-04 19:52:00,67.0,51.0,-100.00,ENE,71,22.0,32.0,57,0.00,,,0.00,1.000000,,2013-03-05 05:52:00,
2013-03-04 20:01:00,67.0,51.0,-100.00,ENE,71,22.0,32.0,57,0.00,,,0.00,1.000000,,2013-03-05 06:01:00,
2013-03-04 20:11:00,67.0,51.0,-100.00,ENE,71,22.0,32.0,57,0.00,,,0.00,1.000000,,2013-03-05 06:11:00,
2013-03-04 20:22:00,67.0,51.0,-100.00,ENE,71,22.0,32.0,57,0.00,,,0.00,1.000000,,2013-03-05 06:22:00,
2013-03-04 20:31:00,67.0,51.0,-100.00,ENE,71,22.0,32.0,57,0.00,,,0.00,1.000000,,2013-03-05 06:31:00,
2013-03-04 20:52:00,67.0,53.0,-100.00,ENE,74,23.0,33.0,61,0.00,,,0.00,1.000000,,2013-03-05 06:52:00,
2013-03-04 21:01:00,67.0,53.0,-100.00,ENE,74,23.0,33.0,61,0.00,,,0.00,1.000000,,2013-03-05 07:01:00,
2013-03-04 21:11:00,67.0,53.0,-100.00,ENE,74,23.0,33.0,61,0.00,,,0.00,1.000000,,2013-03-05 07:11:00,
2013-03-04 21:21:00,67.0,53.0,-100.00,ENE,74,23.0,33.0,61,0.00,,,0.00,1.000000,,2013-03-05 07:21:00,
2013-03-04 21:31:00,67.0,53.0,-100.00,ENE,74,23.0,33.0,61,0.00,,,0.00,1.000000,,2013-03-05 07:31:00,
2013-03-04 21:52:00,66.0,55.0,-100.00,ENE,74,22.0,32.0,67,0.00,,,0.00,1.000000,,2013-03-05 07:52:00,
2013-03-04 22:02:00,66.0,55.0,-100.00,ENE,74,22.0,32.0,67,0.00,,,0.00,1.000000,,2013-03-05 08:02:00,
2013-03-04 22:11:00,66.0,55.0,-100.00,ENE,74,22.0,32.0,67,0.00,,,0.00,1.000000,,2013-03-05 08:11:00,
2013-03-04 22:21:00,66.0,55.0,-100.00,ENE,74,22.0,32.0,67,0.00,,,0.00,1.000000,,2013-03-05 08:21:00,
2013-03-04 22:31:00,66.0,55.0,-100.00,ENE,74,22.0,32.0,67,0.00,,,0.00,1.000000,,2013-03-05 08:31:00,
2013-03-04 22:52:00,66.0,54.0,-100.00,ENE,71,19.0,32.0,65,0.00,,,0.00,1.000000,,2013-03-05 08:52:00,
2013-03-04 23:01:00,66.0,54.0,-100.00,ENE,71,19.0,32.0,65,0.00,,,0.00,1.000000,,2013-03-05 09:01:00,
2013-03-04 23:11:00,66.0,54.0,-100.00,ENE,71,19.0,32.0,65,0.00,,,0.00,1.000000,,2013-03-05 09:11:00,
2013-03-04 23:21:00,66.0,54.0,-100.00,ENE,71,19.0,32.0,65,0.00,,,0.00,1.000000,,2013-03-05 09:21:00,
2013-03-04 23:31:00,66.0,54.0,-100.00,ENE,71,19.0,32.0,65,0.00,,,0.00,1.000000,,2013-03-05 09:31:00,
2013-03-04 23:52:00,66.0,55.0,-100.00,East,97,16.0,25.0,67,0.00,,,0.00,1.000000,,2013-03-05 09:52:00,